sensor_id;sensor_type;location;lat;lon;timestamp;pressure;altitude;pressure_sealevel;temperature;humidity
53758;BME280;39674;59.860;30.672;2023-02-19T00:00:38;98821.88;;;-5.24;100.00
53758;BME280;39674;59.860;30.672;2023-02-19T00:03:15;98820.16;;;-5.23;100.00
53758;BME280;39674;59.860;30.672;2023-02-19T00:08:37;98812.50;;;-5.26;100.00
53758;BME280;39674;59.860;30.672;2023-02-19T00:11:50;98822.78;;;-5.26;100.00
53758;BME280;39674;59.860;30.672;2023-02-19T00:14:34;98825.34;;;-5.26;100.00
53758;BME280;39674;59.860;30.672;2023-02-19T00:17:41;98821.97;;;-5.28;100.00
53758;BME280;39674;59.860;30.672;2023-02-19T00:20:16;98822.03;;;-5.32;100.00
53758;BME280;39674;59.860;30.672;2023-02-19T00:22:58;98817.72;;;-5.31;100.00
53758;BME280;39674;59.860;30.672;2023-02-19T00:28:49;98825.53;;;-5.36;100.00
53758;BME280;39674;59.860;30.672;2023-02-19T00:31:21;98815.25;;;-5.36;100.00
53758;BME280;39674;59.860;30.672;2023-02-19T00:34:03;98810.91;;;-5.32;100.00
53758;BME280;39674;59.860;30.672;2023-02-19T00:36:52;98805.72;;;-5.30;100.00
53758;BME280;39674;59.860;30.672;2023-02-19T00:39:22;98814.31;;;-5.32;100.00
53758;BME280;39674;59.860;30.672;2023-02-19T00:42:04;98803.19;;;-5.34;100.00
53758;BME280;39674;59.860;30.672;2023-02-19T00:44:41;98797.22;;;-5.37;100.00
53758;BME280;39674;59.860;30.672;2023-02-19T00:47:16;98801.63;;;-5.42;100.00
53758;BME280;39674;59.860;30.672;2023-02-19T00:49:50;98790.50;;;-5.44;100.00
53758;BME280;39674;59.860;30.672;2023-02-19T00:52:41;98801.66;;;-5.44;100.00
53758;BME280;39674;59.860;30.672;2023-02-19T00:55:26;98787.91;;;-5.43;100.00
53758;BME280;39674;59.860;30.672;2023-02-19T00:58:11;98797.44;;;-5.48;100.00
53758;BME280;39674;59.860;30.672;2023-02-19T01:00:49;98789.66;;;-5.45;100.00
53758;BME280;39674;59.860;30.672;2023-02-19T01:03:39;98792.31;;;-5.50;100.00
53758;BME280;39674;59.860;30.672;2023-02-19T01:06:19;98783.75;;;-5.50;100.00
53758;BME280;39674;59.860;30.672;2023-02-19T01:09:13;98787.22;;;-5.54;100.00
53758;BME280;39674;59.860;30.672;2023-02-19T01:12:11;98784.75;;;-5.60;100.00
53758;BME280;39674;59.860;30.672;2023-02-19T01:14:48;98784.75;;;-5.60;100.00
53758;BME280;39674;59.860;30.672;2023-02-19T01:17:21;98782.19;;;-5.59;100.00
53758;BME280;39674;59.860;30.672;2023-02-19T01:19:57;98780.50;;;-5.61;100.00
53758;BME280;39674;59.860;30.672;2023-02-19T01:22:30;98781.38;;;-5.62;100.00
53758;BME280;39674;59.860;30.672;2023-02-19T01:25:13;98779.69;;;-5.64;100.00
53758;BME280;39674;59.860;30.672;2023-02-19T01:27:56;98772.91;;;-5.68;100.00
53758;BME280;39674;59.860;30.672;2023-02-19T01:33:32;98771.13;;;-5.66;100.00
53758;BME280;39674;59.860;30.672;2023-02-19T01:36:11;98771.13;;;-5.66;100.00
53758;BME280;39674;59.860;30.672;2023-02-19T01:39:00;98777.97;;;-5.65;100.00
53758;BME280;39674;59.860;30.672;2023-02-19T01:41:45;98772.94;;;-5.71;100.00
53758;BME280;39674;59.860;30.672;2023-02-19T01:47:25;98767.78;;;-5.71;100.00
53758;BME280;39674;59.860;30.672;2023-02-19T01:53:07;98766.09;;;-5.72;100.00
53758;BME280;39674;59.860;30.672;2023-02-19T01:55:51;98771.19;;;-5.69;100.00
53758;BME280;39674;59.860;30.672;2023-02-19T01:58:25;98760.13;;;-5.72;100.00
53758;BME280;39674;59.860;30.672;2023-02-19T02:01:21;98760.94;;;-5.72;100.00
53758;BME280;39674;59.860;30.672;2023-02-19T02:04:08;98755.00;;;-5.75;100.00
53758;BME280;39674;59.860;30.672;2023-02-19T02:06:45;98758.44;;;-5.75;100.00
53758;BME280;39674;59.860;30.672;2023-02-19T02:09:40;98754.22;;;-5.79;100.00
53758;BME280;39674;59.860;30.672;2023-02-19T02:12:38;98753.38;;;-5.80;100.00
53758;BME280;39674;59.860;30.672;2023-02-19T02:15:09;98751.66;;;-5.81;100.00
53758;BME280;39674;59.860;30.672;2023-02-19T02:17:43;98755.91;;;-5.78;100.00
53758;BME280;39674;59.860;30.672;2023-02-19T02:20:55;98753.34;;;-5.78;100.00
53758;BME280;39674;59.860;30.672;2023-02-19T02:23:34;98749.03;;;-5.76;100.00
53758;BME280;39674;59.860;30.672;2023-02-19T02:35:26;98744.84;;;-5.83;100.00
53758;BME280;39674;59.860;30.672;2023-02-19T02:38:07;98756.06;;;-5.87;100.00
53758;BME280;39674;59.860;30.672;2023-02-19T02:40:56;98743.22;;;-5.87;100.00
53758;BME280;39674;59.860;30.672;2023-02-19T02:43:38;98741.50;;;-5.87;100.00
53758;BME280;39674;59.860;30.672;2023-02-19T02:46:09;98747.53;;;-5.89;100.00
53758;BME280;39674;59.860;30.672;2023-02-19T02:48:44;98739.72;;;-5.83;100.00
53758;BME280;39674;59.860;30.672;2023-02-19T02:54:58;98734.69;;;-5.89;100.00
53758;BME280;39674;59.860;30.672;2023-02-19T02:57:36;98737.28;;;-5.91;100.00
53758;BME280;39674;59.860;30.672;2023-02-19T03:00:15;98730.44;;;-5.93;100.00
53758;BME280;39674;59.860;30.672;2023-02-19T03:02:58;98734.78;;;-5.96;100.00
53758;BME280;39674;59.860;30.672;2023-02-19T03:05:43;98733.84;;;-5.91;100.00
53758;BME280;39674;59.860;30.672;2023-02-19T03:08:27;98733.84;;;-5.91;100.00
53758;BME280;39674;59.860;30.672;2023-02-19T03:11:31;98735.66;;;-5.97;100.00
53758;BME280;39674;59.860;30.672;2023-02-19T03:14:29;98730.53;;;-5.98;100.00
53758;BME280;39674;59.860;30.672;2023-02-19T03:17:22;98728.72;;;-5.93;100.00
53758;BME280;39674;59.860;30.672;2023-02-19T03:20:13;98733.94;;;-5.98;100.00
53758;BME280;39674;59.860;30.672;2023-02-19T03:22:54;98725.34;;;-5.95;100.00
53758;BME280;39674;59.860;30.672;2023-02-19T03:25:30;98727.94;;;-5.97;100.00
53758;BME280;39674;59.860;30.672;2023-02-19T03:31:46;98725.44;;;-6.00;100.00
53758;BME280;39674;59.860;30.672;2023-02-19T03:34:21;98731.44;;;-5.99;100.00
53758;BME280;39674;59.860;30.672;2023-02-19T03:37:03;98728.00;;;-6.00;100.00
53758;BME280;39674;59.860;30.672;2023-02-19T03:39:50;98732.34;;;-6.02;100.00
53758;BME280;39674;59.860;30.672;2023-02-19T03:42:22;98727.19;;;-6.02;100.00
53758;BME280;39674;59.860;30.672;2023-02-19T03:45:25;98733.13;;;-6.00;100.00
53758;BME280;39674;59.860;30.672;2023-02-19T03:48:23;98734.81;;;-5.97;100.00
53758;BME280;39674;59.860;30.672;2023-02-19T03:51:16;98739.19;;;-6.01;100.00
53758;BME280;39674;59.860;30.672;2023-02-19T03:54:14;98727.13;;;-5.99;100.00
53758;BME280;39674;59.860;30.672;2023-02-19T03:57:29;98727.19;;;-6.02;100.00
53758;BME280;39674;59.860;30.672;2023-02-19T04:00:03;98730.66;;;-6.06;100.00
53758;BME280;39674;59.860;30.672;2023-02-19T04:02:43;98723.75;;;-6.01;100.00
53758;BME280;39674;59.860;30.672;2023-02-19T04:05:23;98727.19;;;-6.03;100.00
53758;BME280;39674;59.860;30.672;2023-02-19T04:08:01;98730.66;;;-6.06;100.00
53758;BME280;39674;59.860;30.672;2023-02-19T04:10:40;98718.66;;;-6.04;100.00
53758;BME280;39674;59.860;30.672;2023-02-19T04:13:26;98724.63;;;-6.02;100.00
53758;BME280;39674;59.860;30.672;2023-02-19T04:16:00;98720.38;;;-6.06;100.00
53758;BME280;39674;59.860;30.672;2023-02-19T04:18:35;98723.78;;;-6.04;100.00
53758;BME280;39674;59.860;30.672;2023-02-19T04:21:39;98727.22;;;-6.05;100.00
53758;BME280;39674;59.860;30.672;2023-02-19T04:24:20;98723.03;;;-6.09;100.00
53758;BME280;39674;59.860;30.672;2023-02-19T04:26:58;98722.16;;;-6.08;100.00
53758;BME280;39674;59.860;30.672;2023-02-19T04:29:36;98721.28;;;-6.07;100.00
53758;BME280;39674;59.860;30.672;2023-02-19T04:32:08;98717.81;;;-6.06;100.00
53758;BME280;39674;59.860;30.672;2023-02-19T04:34:41;98718.75;;;-6.10;100.00
53758;BME280;39674;59.860;30.672;2023-02-19T04:37:17;98715.22;;;-6.03;100.00
53758;BME280;39674;59.860;30.672;2023-02-19T04:39:50;98718.72;;;-6.07;100.00
53758;BME280;39674;59.860;30.672;2023-02-19T04:42:19;98720.38;;;-6.06;100.00
53758;BME280;39674;59.860;30.672;2023-02-19T04:44:55;98712.69;;;-6.06;100.00
53758;BME280;39674;59.860;30.672;2023-02-19T04:47:30;98720.38;;;-6.06;100.00
53758;BME280;39674;59.860;30.672;2023-02-19T04:50:00;98723.88;;;-6.07;100.00
53758;BME280;39674;59.860;30.672;2023-02-19T04:52:33;98714.47;;;-6.11;100.00
53758;BME280;39674;59.860;30.672;2023-02-19T04:56:00;98712.66;;;-6.03;100.00
53758;BME280;39674;59.860;30.672;2023-02-19T05:01:11;98722.16;;;-6.08;100.00
53758;BME280;39674;59.860;30.672;2023-02-19T05:03:42;98718.72;;;-6.07;100.00
53758;BME280;39674;59.860;30.672;2023-02-19T05:06:11;98713.59;;;-6.07;100.00
53758;BME280;39674;59.860;30.672;2023-02-19T05:08:45;98717.06;;;-6.11;100.00
53758;BME280;39674;59.860;30.672;2023-02-19T05:11:13;98714.44;;;-6.09;100.00
53758;BME280;39674;59.860;30.672;2023-02-19T05:14:00;98718.72;;;-6.07;100.00
53758;BME280;39674;59.860;30.672;2023-02-19T05:16:30;98717.88;;;-6.09;100.00
53758;BME280;39674;59.860;30.672;2023-02-19T05:19:00;98717.88;;;-6.09;100.00
53758;BME280;39674;59.860;30.672;2023-02-19T05:21:32;98717.06;;;-6.11;100.00
53758;BME280;39674;59.860;30.672;2023-02-19T05:24:11;98716.19;;;-6.10;100.00
53758;BME280;39674;59.860;30.672;2023-02-19T05:26:45;98723.91;;;-6.10;100.00
53758;BME280;39674;59.860;30.672;2023-02-19T05:29:35;98714.44;;;-6.09;100.00
53758;BME280;39674;59.860;30.672;2023-02-19T05:32:10;98718.78;;;-6.11;100.00
53758;BME280;39674;59.860;30.672;2023-02-19T05:35:04;98713.63;;;-6.10;100.00
53758;BME280;39674;59.860;30.672;2023-02-19T05:37:52;98725.63;;;-6.10;100.00
53758;BME280;39674;59.860;30.672;2023-02-19T05:40:51;98720.44;;;-6.09;100.00
53758;BME280;39674;59.860;30.672;2023-02-19T05:43:58;98723.00;;;-6.07;100.00
53758;BME280;39674;59.860;30.672;2023-02-19T05:46:35;98734.22;;;-6.13;100.00
53758;BME280;39674;59.860;30.672;2023-02-19T05:49:09;98736.78;;;-6.11;100.00
53758;BME280;39674;59.860;30.672;2023-02-19T05:51:38;98735.03;;;-6.11;100.00
53758;BME280;39674;59.860;30.672;2023-02-19T05:54:11;98729.88;;;-6.08;100.00
53758;BME280;39674;59.860;30.672;2023-02-19T05:56:42;98733.28;;;-6.07;100.00
53758;BME280;39674;59.860;30.672;2023-02-19T05:59:23;98734.13;;;-6.07;100.00
53758;BME280;39674;59.860;30.672;2023-02-19T06:02:12;98737.59;;;-6.08;100.00
53758;BME280;39674;59.860;30.672;2023-02-19T06:04:54;98733.28;;;-6.07;100.00
53758;BME280;39674;59.860;30.672;2023-02-19T06:07:39;98734.06;;;-6.04;100.00
53758;BME280;39674;59.860;30.672;2023-02-19T06:10:24;98741.75;;;-6.02;100.00
53758;BME280;39674;59.860;30.672;2023-02-19T06:13:03;98734.03;;;-6.02;100.00
53758;BME280;39674;59.860;30.672;2023-02-19T06:15:36;98737.38;;;-5.97;100.00
53758;BME280;39674;59.860;30.672;2023-02-19T06:18:15;98735.72;;;-6.00;100.00
53758;BME280;39674;59.860;30.672;2023-02-19T06:21:02;98727.13;;;-5.99;100.00
53758;BME280;39674;59.860;30.672;2023-02-19T06:31:22;98733.00;;;-5.93;100.00
53758;BME280;39674;59.860;30.672;2023-02-19T06:33:52;98726.13;;;-5.91;100.00
53758;BME280;39674;59.860;30.672;2023-02-19T06:36:24;98727.88;;;-5.93;100.00
53758;BME280;39674;59.860;30.672;2023-02-19T06:39:15;98727.00;;;-5.92;100.00
53758;BME280;39674;59.860;30.672;2023-02-19T06:42:45;98730.38;;;-5.87;100.00
53758;BME280;39674;59.860;30.672;2023-02-19T06:45:39;98742.38;;;-5.89;100.00
53758;BME280;39674;59.860;30.672;2023-02-19T07:27:04;98754.44;;;-5.41;100.00
53758;BME280;39674;59.860;30.672;2023-02-19T07:29:34;98754.31;;;-5.35;100.00
53758;BME280;39674;59.860;30.672;2023-02-19T07:32:12;98757.81;;;-5.38;100.00
53758;BME280;39674;59.860;30.672;2023-02-19T07:35:18;98759.44;;;-5.34;100.00
53758;BME280;39674;59.860;30.672;2023-02-19T07:38:16;98758.56;;;-5.33;100.00
53758;BME280;39674;59.860;30.672;2023-02-19T07:40:49;98764.50;;;-5.29;100.00
53758;BME280;39674;59.860;30.672;2023-02-19T07:44:02;98767.81;;;-5.24;100.00
53758;BME280;39674;59.860;30.672;2023-02-19T07:56:30;98774.41;;;-5.09;100.00
53758;BME280;39674;59.860;30.672;2023-02-19T08:05:58;98768.81;;;-4.86;100.00
53758;BME280;39674;59.860;30.672;2023-02-19T08:08:59;98773.88;;;-4.81;100.00
53758;BME280;39674;59.860;30.672;2023-02-19T08:18:50;98776.53;;;-4.84;100.00
53758;BME280;39674;59.860;30.672;2023-02-19T08:21:42;98780.78;;;-4.81;100.00
53758;BME280;39674;59.860;30.672;2023-02-19T08:25:32;98787.63;;;-4.82;100.00
53758;BME280;39674;59.860;30.672;2023-02-19T08:27:45;98786.63;;;-4.73;100.00
53758;BME280;39674;59.860;30.672;2023-02-19T08:36:34;98790.16;;;-4.79;100.00
53758;BME280;39674;59.860;30.672;2023-02-19T08:39:22;98784.94;;;-4.76;100.00
53758;BME280;39674;59.860;30.672;2023-02-19T08:41:55;98787.38;;;-4.70;100.00
53758;BME280;39674;59.860;30.672;2023-02-19T08:44:31;98779.59;;;-4.67;100.00
53758;BME280;39674;59.860;30.672;2023-02-19T08:47:02;98783.84;;;-4.64;100.00
53758;BME280;39674;59.860;30.672;2023-02-19T08:50:03;98785.53;;;-4.63;100.00
53758;BME280;39674;59.860;30.672;2023-02-19T08:54:38;98796.81;;;-4.69;100.00
53758;BME280;39674;59.860;30.672;2023-02-19T09:11:52;98807.06;;;-4.65;100.00
53758;BME280;39674;59.860;30.672;2023-02-19T09:18:30;98814.06;;;-4.71;100.00
53758;BME280;39674;59.860;30.672;2023-02-19T09:21:51;98820.78;;;-4.63;100.00
53758;BME280;39674;59.860;30.672;2023-02-19T09:24:23;98822.53;;;-4.65;100.00
53758;BME280;39674;59.860;30.672;2023-02-19T09:27:02;98824.91;;;-4.56;100.00
53758;BME280;39674;59.860;30.672;2023-02-19T09:29:41;98825.94;;;-4.63;100.00
53758;BME280;39674;59.860;30.672;2023-02-19T09:32:17;98822.53;;;-4.65;100.00
53758;BME280;39674;59.860;30.672;2023-02-19T09:34:48;98831.09;;;-4.63;100.00
53758;BME280;39674;59.860;30.672;2023-02-19T09:37:19;98826.66;;;-4.57;100.00
53758;BME280;39674;59.860;30.672;2023-02-19T09:40:14;98833.66;;;-4.65;100.00
53758;BME280;39674;59.860;30.672;2023-02-19T09:42:50;98841.44;;;-4.67;100.00
53758;BME280;39674;59.860;30.672;2023-02-19T09:45:20;98840.44;;;-4.59;100.00
53758;BME280;39674;59.860;30.672;2023-02-19T09:47:52;98839.56;;;-4.58;100.00
53758;BME280;39674;59.860;30.672;2023-02-19T09:50:26;98841.06;;;-4.48;100.00
53758;BME280;39674;59.860;30.672;2023-02-19T09:53:03;98849.00;;;-4.59;100.00
53758;BME280;39674;59.860;30.672;2023-02-19T09:56:14;98850.72;;;-4.58;100.00
53758;BME280;39674;59.860;30.672;2023-02-19T09:58:53;98843.00;;;-4.59;100.00
53758;BME280;39674;59.860;30.672;2023-02-19T10:01:40;98860.88;;;-4.52;100.00
53758;BME280;39674;59.860;30.672;2023-02-19T10:04:13;98847.97;;;-4.50;100.00
53758;BME280;39674;59.860;30.672;2023-02-19T10:06:52;98853.19;;;-4.53;100.00
53758;BME280;39674;59.860;30.672;2023-02-19T10:09:29;98853.94;;;-4.48;100.00
53758;BME280;39674;59.860;30.672;2023-02-19T10:12:12;98853.06;;;-4.47;100.00
53758;BME280;39674;59.860;30.672;2023-02-19T10:14:45;98855.03;;;-4.58;100.00
53758;BME280;39674;59.860;30.672;2023-02-19T10:17:19;98854.19;;;-4.60;100.00
53758;BME280;39674;59.860;30.672;2023-02-19T10:19:57;98853.31;;;-4.59;100.00
53758;BME280;39674;59.860;30.672;2023-02-19T10:22:34;98860.19;;;-4.58;100.00
53758;BME280;39674;59.860;30.672;2023-02-19T10:25:07;98858.41;;;-4.56;100.00
53758;BME280;39674;59.860;30.672;2023-02-19T10:27:39;98861.63;;;-4.45;100.00
53758;BME280;39674;59.860;30.672;2023-02-19T10:30:21;98860.81;;;-4.47;100.00
53758;BME280;39674;59.860;30.672;2023-02-19T10:32:59;98863.44;;;-4.50;100.00
53758;BME280;39674;59.860;30.672;2023-02-19T10:35:36;98859.25;;;-4.56;100.00
53758;BME280;39674;59.860;30.672;2023-02-19T10:38:05;98861.81;;;-4.54;100.00
53758;BME280;39674;59.860;30.672;2023-02-19T10:40:37;98869.63;;;-4.57;100.00
53758;BME280;39674;59.860;30.672;2023-02-19T10:43:17;98866.13;;;-4.55;99.94
53758;BME280;39674;59.860;30.672;2023-02-19T10:48:39;98872.97;;;-4.55;99.59
53758;BME280;39674;59.860;30.672;2023-02-19T10:51:11;98878.09;;;-4.52;99.99
53758;BME280;39674;59.860;30.672;2023-02-19T10:53:50;98871.94;;;-4.45;100.00
53758;BME280;39674;59.860;30.672;2023-02-19T10:56:37;98869.31;;;-4.43;100.00
53758;BME280;39674;59.860;30.672;2023-02-19T11:02:14;98877.97;;;-4.46;100.00
53758;BME280;39674;59.860;30.672;2023-02-19T11:04:59;98878.00;;;-4.47;100.00
53758;BME280;39674;59.860;30.672;2023-02-19T11:07:33;98880.56;;;-4.46;100.00
53758;BME280;39674;59.860;30.672;2023-02-19T11:10:04;98880.47;;;-4.43;100.00
53758;BME280;39674;59.860;30.672;2023-02-19T11:12:33;98878.72;;;-4.41;100.00
53758;BME280;39674;59.860;30.672;2023-02-19T11:15:11;98880.31;;;-4.33;100.00
53758;BME280;39674;59.860;30.672;2023-02-19T11:17:43;98886.28;;;-4.31;100.00
53758;BME280;39674;59.860;30.672;2023-02-19T11:20:17;98890.53;;;-4.30;100.00
53758;BME280;39674;59.860;30.672;2023-02-19T11:22:50;98888.72;;;-4.25;100.00
53758;BME280;39674;59.860;30.672;2023-02-19T11:25:19;98892.16;;;-4.25;100.00
53758;BME280;39674;59.860;30.672;2023-02-19T11:28:20;98893.75;;;-4.19;100.00
53758;BME280;39674;59.860;30.672;2023-02-19T11:30:53;98894.56;;;-4.15;100.00
53758;BME280;39674;59.860;30.672;2023-02-19T11:33:27;98900.41;;;-4.09;100.00
53758;BME280;39674;59.860;30.672;2023-02-19T11:36:04;98902.00;;;-4.01;100.00
53758;BME280;39674;59.860;30.672;2023-02-19T11:38:47;98901.19;;;-4.05;99.05
53758;BME280;39674;59.860;30.672;2023-02-19T11:41:17;98900.38;;;-4.06;99.71
53758;BME280;39674;59.860;30.672;2023-02-19T11:43:55;98904.78;;;-4.12;99.50
53758;BME280;39674;59.860;30.672;2023-02-19T11:46:29;98909.06;;;-4.11;99.26
53758;BME280;39674;59.860;30.672;2023-02-19T11:49:14;98914.25;;;-4.13;100.00
53758;BME280;39674;59.860;30.672;2023-02-19T11:52:05;98915.97;;;-4.12;100.00
53758;BME280;39674;59.860;30.672;2023-02-19T11:54:42;98916.69;;;-4.05;100.00
53758;BME280;39674;59.860;30.672;2023-02-19T11:57:16;98920.16;;;-4.08;100.00
53758;BME280;39674;59.860;30.672;2023-02-19T11:59:54;98922.56;;;-3.98;100.00
53758;BME280;39674;59.860;30.672;2023-02-19T12:05:17;98927.38;;;-3.83;100.00
53758;BME280;39674;59.860;30.672;2023-02-19T12:08:13;98935.94;;;-3.81;100.00
53758;BME280;39674;59.860;30.672;2023-02-19T12:10:57;98934.25;;;-3.82;100.00
53758;BME280;39674;59.860;30.672;2023-02-19T12:13:45;98931.88;;;-3.93;100.00
53758;BME280;39674;59.860;30.672;2023-02-19T12:16:32;98938.88;;;-3.98;100.00
53758;BME280;39674;59.860;30.672;2023-02-19T12:19:17;98944.94;;;-4.00;100.00
53758;BME280;39674;59.860;30.672;2023-02-19T12:22:02;98946.91;;;-4.12;100.00
53758;BME280;39674;59.860;30.672;2023-02-19T12:27:37;98948.50;;;-4.05;100.00
53758;BME280;39674;59.860;30.672;2023-02-19T12:30:24;98949.38;;;-4.07;100.00
53758;BME280;39674;59.860;30.672;2023-02-19T12:35:55;98957.91;;;-4.04;100.00
53758;BME280;39674;59.860;30.672;2023-02-19T12:38:29;98960.44;;;-4.00;100.00
53758;BME280;39674;59.860;30.672;2023-02-19T12:41:07;98962.31;;;-4.09;100.00
53758;BME280;39674;59.860;30.672;2023-02-19T12:43:45;98962.31;;;-4.09;100.00
53758;BME280;39674;59.860;30.672;2023-02-19T12:46:21;98965.84;;;-4.13;100.00
53758;BME280;39674;59.860;30.672;2023-02-19T12:49:11;98973.53;;;-4.11;100.00
53758;BME280;39674;59.860;30.672;2023-02-19T12:51:48;98974.59;;;-4.22;100.00
53758;BME280;39674;59.860;30.672;2023-02-19T12:54:22;98971.16;;;-4.22;100.00
53758;BME280;39674;59.860;30.672;2023-02-19T12:56:57;98967.00;;;-4.28;100.00
53758;BME280;39674;59.860;30.672;2023-02-19T12:59:36;98979.88;;;-4.28;100.00
53758;BME280;39674;59.860;30.672;2023-02-19T13:02:12;98985.91;;;-4.29;100.00
53758;BME280;39674;59.860;30.672;2023-02-19T13:04:45;98979.09;;;-4.31;100.00
53758;BME280;39674;59.860;30.672;2023-02-19T13:07:15;98978.28;;;-4.37;100.00
53758;BME280;39674;59.860;30.672;2023-02-19T13:09:47;98982.69;;;-4.42;100.00
53758;BME280;39674;59.860;30.672;2023-02-19T13:12:22;98985.22;;;-4.39;100.00
53758;BME280;39674;59.860;30.672;2023-02-19T13:14:56;98989.44;;;-4.35;100.00
53758;BME280;39674;59.860;30.672;2023-02-19T13:17:30;98990.25;;;-4.32;100.00
53758;BME280;39674;59.860;30.672;2023-02-19T13:20:03;98996.25;;;-4.32;100.00
53758;BME280;39674;59.860;30.672;2023-02-19T13:22:42;99004.03;;;-4.33;100.00
53758;BME280;39674;59.860;30.672;2023-02-19T13:25:37;99000.63;;;-4.34;99.79
53758;BME280;39674;59.860;30.672;2023-02-19T13:28:18;99016.94;;;-4.37;98.35
53758;BME280;39674;59.860;30.672;2023-02-19T13:31:04;99012.63;;;-4.35;99.18
53758;BME280;39674;59.860;30.672;2023-02-19T13:33:41;99014.38;;;-4.37;98.10
53758;BME280;39674;59.860;30.672;2023-02-19T13:36:18;99027.31;;;-4.38;98.00
53758;BME280;39674;59.860;30.672;2023-02-19T13:38:50;99020.44;;;-4.39;97.43
53758;BME280;39674;59.860;30.672;2023-02-19T13:41:29;99018.81;;;-4.43;97.16
53758;BME280;39674;59.860;30.672;2023-02-19T13:43:59;99033.44;;;-4.44;96.93
53758;BME280;39674;59.860;30.672;2023-02-19T13:46:42;99029.91;;;-4.40;97.69
53758;BME280;39674;59.860;30.672;2023-02-19T13:52:02;99032.47;;;-4.38;98.31
53758;BME280;39674;59.860;30.672;2023-02-19T13:54:51;99037.59;;;-4.38;98.46
53758;BME280;39674;59.860;30.672;2023-02-19T13:57:43;99041.97;;;-4.42;98.29
53758;BME280;39674;59.860;30.672;2023-02-19T14:06:02;99043.66;;;-4.41;99.83
53758;BME280;39674;59.860;30.672;2023-02-19T14:14:25;99049.59;;;-4.34;100.00
53758;BME280;39674;59.860;30.672;2023-02-19T14:17:22;99053.94;;;-4.38;100.00
53758;BME280;39674;59.860;30.672;2023-02-19T14:19:56;99053.94;;;-4.38;100.00
53758;BME280;39674;59.860;30.672;2023-02-19T14:28:35;99067.81;;;-4.45;100.00
53758;BME280;39674;59.860;30.672;2023-02-19T14:31:23;99071.28;;;-4.49;100.00
53758;BME280;39674;59.860;30.672;2023-02-19T14:33:58;99070.53;;;-4.54;100.00
53758;BME280;39674;59.860;30.672;2023-02-19T14:36:39;99077.41;;;-4.56;100.00
53758;BME280;39674;59.860;30.672;2023-02-19T14:39:26;99080.09;;;-4.62;100.00
53758;BME280;39674;59.860;30.672;2023-02-19T14:41:57;99083.50;;;-4.60;100.00
53758;BME280;39674;59.860;30.672;2023-02-19T14:44:33;99082.66;;;-4.61;100.00
53758;BME280;39674;59.860;30.672;2023-02-19T14:47:14;99080.09;;;-4.62;100.00
53758;BME280;39674;59.860;30.672;2023-02-19T14:49:48;99095.63;;;-4.65;100.00
53758;BME280;39674;59.860;30.672;2023-02-19T14:52:19;99093.06;;;-4.67;100.00
53758;BME280;39674;59.860;30.672;2023-02-19T14:54:51;99098.25;;;-4.70;100.00
53758;BME280;39674;59.860;30.672;2023-02-19T14:57:22;99103.44;;;-4.72;100.00
53758;BME280;39674;59.860;30.672;2023-02-19T15:00:13;99101.75;;;-4.74;100.00
53758;BME280;39674;59.860;30.672;2023-02-19T15:02:51;99102.66;;;-4.77;100.00
53758;BME280;39674;59.860;30.672;2023-02-19T15:05:26;99102.69;;;-4.80;100.00
53758;BME280;39674;59.860;30.672;2023-02-19T15:08:06;99096.72;;;-4.80;100.00
53758;BME280;39674;59.860;30.672;2023-02-19T15:10:40;99100.19;;;-4.85;100.00
53758;BME280;39674;59.860;30.672;2023-02-19T15:13:34;99108.84;;;-4.89;100.00
53758;BME280;39674;59.860;30.672;2023-02-19T15:16:43;99102.03;;;-4.93;100.00
53758;BME280;39674;59.860;30.672;2023-02-19T15:19:15;99113.19;;;-4.92;100.00
53758;BME280;39674;59.860;30.672;2023-02-19T15:21:53;99111.53;;;-4.96;100.00
53758;BME280;39674;59.860;30.672;2023-02-19T15:24:21;99112.41;;;-4.97;100.00
53758;BME280;39674;59.860;30.672;2023-02-19T15:26:55;99117.53;;;-4.99;100.00
53758;BME280;39674;59.860;30.672;2023-02-19T15:29:26;99121.84;;;-5.00;100.00
53758;BME280;39674;59.860;30.672;2023-02-19T15:32:12;99125.34;;;-5.04;100.00
53758;BME280;39674;59.860;30.672;2023-02-19T15:34:55;99127.94;;;-5.04;100.00
53758;BME280;39674;59.860;30.672;2023-02-19T15:37:29;99126.25;;;-5.06;100.00
53758;BME280;39674;59.860;30.672;2023-02-19T15:40:00;99133.97;;;-5.08;100.00
53758;BME280;39674;59.860;30.672;2023-02-19T15:42:31;99137.41;;;-5.09;100.00
53758;BME280;39674;59.860;30.672;2023-02-19T15:45:05;99136.59;;;-5.11;100.00
53758;BME280;39674;59.860;30.672;2023-02-19T15:47:39;99142.63;;;-5.15;100.00
53758;BME280;39674;59.860;30.672;2023-02-19T15:50:12;99140.97;;;-5.16;100.00
53758;BME280;39674;59.860;30.672;2023-02-19T15:52:46;99147.00;;;-5.20;100.00
53758;BME280;39674;59.860;30.672;2023-02-19T15:55:25;99146.19;;;-5.22;100.00
53758;BME280;39674;59.860;30.672;2023-02-19T15:58:02;99153.94;;;-5.25;100.00
53758;BME280;39674;59.860;30.672;2023-02-19T16:00:36;99148.75;;;-5.24;100.00
53758;BME280;39674;59.860;30.672;2023-02-19T16:03:12;99153.91;;;-5.24;100.00
53758;BME280;39674;59.860;30.672;2023-02-19T16:05:43;99161.63;;;-5.22;100.00
53758;BME280;39674;59.860;30.672;2023-02-19T16:08:16;99159.94;;;-5.23;100.00
53758;BME280;39674;59.860;30.672;2023-02-19T16:10:52;99161.63;;;-5.22;100.00
53758;BME280;39674;59.860;30.672;2023-02-19T16:13:25;99166.72;;;-5.19;100.00
53758;BME280;39674;59.860;30.672;2023-02-19T16:15:57;99165.91;;;-5.23;100.00
53758;BME280;39674;59.860;30.672;2023-02-19T16:18:41;99165.91;;;-5.23;100.00
53758;BME280;39674;59.860;30.672;2023-02-19T16:21:19;99167.69;;;-5.26;100.00
53758;BME280;39674;59.860;30.672;2023-02-19T16:24:05;99172.81;;;-5.26;100.00
53758;BME280;39674;59.860;30.672;2023-02-19T16:26:43;99146.38;;;-5.38;100.00
53758;BME280;39674;59.860;30.672;2023-02-19T16:29:18;99172.81;;;-5.26;100.00
53758;BME280;39674;59.860;30.672;2023-02-19T16:31:48;99181.41;;;-5.27;100.00
53758;BME280;39674;59.860;30.672;2023-02-19T16:34:33;99185.69;;;-5.26;100.00